sensor_id;sensor_type;location;lat;lon;timestamp;pressure;altitude;pressure_sealevel;temperature
20730;BMP280;10526;50.850;12.928;2023-02-01T00:02:53;97800.09;;;4.29
20730;BMP280;10526;50.850;12.928;2023-02-01T00:07:15;97796.72;;;4.28
20730;BMP280;10526;50.850;12.928;2023-02-01T00:11:37;97789.88;;;4.23
20730;BMP280;10526;50.850;12.928;2023-02-01T00:16:09;97807.88;;;4.21
20730;BMP280;10526;50.850;12.928;2023-02-01T00:20:31;97806.44;;;4.24
20730;BMP280;10526;50.850;12.928;2023-02-01T00:24:53;97809.81;;;4.24
20730;BMP280;10526;50.850;12.928;2023-02-01T00:29:19;97817.38;;;4.26
20730;BMP280;10526;50.850;12.928;2023-02-01T00:33:41;97817.38;;;4.26
20730;BMP280;10526;50.850;12.928;2023-02-01T00:38:03;97820.00;;;4.26
20730;BMP280;10526;50.850;12.928;2023-02-01T00:42:25;97812.81;;;4.23
20730;BMP280;10526;50.850;12.928;2023-02-01T00:46:47;97820.38;;;4.24
20730;BMP280;10526;50.850;12.928;2023-02-01T00:51:16;97806.06;;;4.25
20730;BMP280;10526;50.850;12.928;2023-02-01T00:55:39;97813.66;;;4.27
20730;BMP280;10526;50.850;12.928;2023-02-01T01:00:01;97823.00;;;4.24
20730;BMP280;10526;50.850;12.928;2023-02-01T01:04:23;97818.09;;;4.23
20730;BMP280;10526;50.850;12.928;2023-02-01T01:08:46;97809.00;;;4.20
20730;BMP280;10526;50.850;12.928;2023-02-01T01:13:08;97822.53;;;4.19
20730;BMP280;10526;50.850;12.928;2023-02-01T01:17:32;97820.66;;;4.19
20730;BMP280;10526;50.850;12.928;2023-02-01T01:21:54;97827.03;;;4.18
20730;BMP280;10526;50.850;12.928;2023-02-01T01:26:23;97824.38;;;4.18
20730;BMP280;10526;50.850;12.928;2023-02-01T01:30:45;97822.53;;;4.19
20730;BMP280;10526;50.850;12.928;2023-02-01T01:35:08;97811.22;;;4.18
20730;BMP280;10526;50.850;12.928;2023-02-01T01:39:30;97824.03;;;4.16
20730;BMP280;10526;50.850;12.928;2023-02-01T01:44:04;97818.31;;;4.14
20730;BMP280;10526;50.850;12.928;2023-02-01T01:48:29;97819.81;;;4.12
20730;BMP280;10526;50.850;12.928;2023-02-01T01:52:53;97817.94;;;4.12
20730;BMP280;10526;50.850;12.928;2023-02-01T01:57:27;97811.13;;;4.11
20730;BMP280;10526;50.850;12.928;2023-02-01T02:01:52;97807.66;;;4.07
20730;BMP280;10526;50.850;12.928;2023-02-01T02:06:43;97809.53;;;4.07
20730;BMP280;10526;50.850;12.928;2023-02-01T02:11:12;97810.28;;;4.07
20730;BMP280;10526;50.850;12.928;2023-02-01T02:15:42;97796.03;;;4.08
20730;BMP280;10526;50.850;12.928;2023-02-01T02:30:27;97782.41;;;4.06
20730;BMP280;10526;50.850;12.928;2023-02-01T02:35:30;97782.03;;;4.04
20730;BMP280;10526;50.850;12.928;2023-02-01T02:45:17;97749.28;;;4.05
20730;BMP280;10526;50.850;12.928;2023-02-01T02:50:10;97752.28;;;4.04
20730;BMP280;10526;50.850;12.928;2023-02-01T02:54:54;97742.50;;;4.04
20730;BMP280;10526;50.850;12.928;2023-02-01T02:59:21;97742.50;;;4.04
20730;BMP280;10526;50.850;12.928;2023-02-01T03:04:03;97735.00;;;4.06
20730;BMP280;10526;50.850;12.928;2023-02-01T03:08:37;97750.41;;;4.04
20730;BMP280;10526;50.850;12.928;2023-02-01T03:17:56;97739.09;;;4.04
20730;BMP280;10526;50.850;12.928;2023-02-01T03:22:24;97737.56;;;4.03
20730;BMP280;10526;50.850;12.928;2023-02-01T03:26:55;97752.63;;;4.02
20730;BMP280;10526;50.850;12.928;2023-02-01T03:31:17;97742.78;;;3.99
20730;BMP280;10526;50.850;12.928;2023-02-01T03:40:27;97731.88;;;3.97
20730;BMP280;10526;50.850;12.928;2023-02-01T03:45:18;97729.59;;;3.99
20730;BMP280;10526;50.850;12.928;2023-02-01T03:50:15;97728.06;;;3.98
20730;BMP280;10526;50.850;12.928;2023-02-01T03:54:39;97731.78;;;3.93
20730;BMP280;10526;50.850;12.928;2023-02-01T03:59:02;97738.13;;;3.89
20730;BMP280;10526;50.850;12.928;2023-02-01T04:03:28;97741.91;;;3.91
20730;BMP280;10526;50.850;12.928;2023-02-01T04:07:51;97730.22;;;3.89
20730;BMP280;10526;50.850;12.928;2023-02-01T04:12:13;97728.28;;;3.86
20730;BMP280;10526;50.850;12.928;2023-02-01T04:16:36;97715.81;;;3.83
20730;BMP280;10526;50.850;12.928;2023-02-01T04:20:58;97721.34;;;3.78
20730;BMP280;10526;50.850;12.928;2023-02-01T04:25:20;97717.25;;;3.80
20730;BMP280;10526;50.850;12.928;2023-02-01T04:29:43;97712.31;;;3.75
20730;BMP280;10526;50.850;12.928;2023-02-01T04:34:06;97712.59;;;3.70
20730;BMP280;10526;50.850;12.928;2023-02-01T04:38:28;97703.94;;;3.69
20730;BMP280;10526;50.850;12.928;2023-02-01T04:42:51;97711.84;;;3.69
20730;BMP280;10526;50.850;12.928;2023-02-01T04:47:14;97702.75;;;3.67
20730;BMP280;10526;50.850;12.928;2023-02-01T04:51:37;97687.72;;;3.67
20730;BMP280;10526;50.850;12.928;2023-02-01T04:56:00;97684.38;;;3.70
20730;BMP280;10526;50.850;12.928;2023-02-01T05:00:22;97669.78;;;3.73
20730;BMP280;10526;50.850;12.928;2023-02-01T05:04:45;97673.53;;;3.75
20730;BMP280;10526;50.850;12.928;2023-02-01T05:09:07;97666.81;;;3.78
20730;BMP280;10526;50.850;12.928;2023-02-01T05:13:30;97658.16;;;3.78
20730;BMP280;10526;50.850;12.928;2023-02-01T05:18:10;97632.84;;;3.69
20730;BMP280;10526;50.850;12.928;2023-02-01T05:22:32;97635.88;;;3.71
20730;BMP280;10526;50.850;12.928;2023-02-01T05:26:54;97619.25;;;3.67
20730;BMP280;10526;50.850;12.928;2023-02-01T05:31:17;97606.47;;;3.66
20730;BMP280;10526;50.850;12.928;2023-02-01T05:35:40;97620.72;;;3.65
20730;BMP280;10526;50.850;12.928;2023-02-01T05:40:02;97616.16;;;3.62
20730;BMP280;10526;50.850;12.928;2023-02-01T05:44:25;97616.16;;;3.62
20730;BMP280;10526;50.850;12.928;2023-02-01T05:48:47;97602.63;;;3.63
20730;BMP280;10526;50.850;12.928;2023-02-01T05:53:09;97617.75;;;3.66
20730;BMP280;10526;50.850;12.928;2023-02-01T05:57:32;97621.19;;;3.70
20730;BMP280;10526;50.850;12.928;2023-02-01T06:01:54;97616.03;;;3.78
20730;BMP280;10526;50.850;12.928;2023-02-01T06:06:16;97610.81;;;3.81
20730;BMP280;10526;50.850;12.928;2023-02-01T06:10:40;97614.16;;;3.78
20730;BMP280;10526;50.850;12.928;2023-02-01T06:15:03;97597.91;;;3.76
20730;BMP280;10526;50.850;12.928;2023-02-01T06:19:26;97604.69;;;3.73
20730;BMP280;10526;50.850;12.928;2023-02-01T06:23:48;97607.34;;;3.73
20730;BMP280;10526;50.850;12.928;2023-02-01T06:28:10;97604.34;;;3.75
20730;BMP280;10526;50.850;12.928;2023-02-01T06:32:32;97614.88;;;3.75
20730;BMP280;10526;50.850;12.928;2023-02-01T06:36:54;97604.69;;;3.73
20730;BMP280;10526;50.850;12.928;2023-02-01T06:41:17;97615.94;;;3.70
20730;BMP280;10526;50.850;12.928;2023-02-01T06:45:39;97624.53;;;3.67
20730;BMP280;10526;50.850;12.928;2023-02-01T06:50:01;97617.25;;;3.61
20730;BMP280;10526;50.850;12.928;2023-02-01T06:54:22;97617.63;;;3.59
20730;BMP280;10526;50.850;12.928;2023-02-01T06:58:45;97620.25;;;3.59
20730;BMP280;10526;50.850;12.928;2023-02-01T07:03:07;97609.28;;;3.57
20730;BMP280;10526;50.850;12.928;2023-02-01T07:07:29;97601.00;;;3.55
20730;BMP280;10526;50.850;12.928;2023-02-01T07:11:51;97599.88;;;3.56
20730;BMP280;10526;50.850;12.928;2023-02-01T07:16:17;97587.47;;;3.57
20730;BMP280;10526;50.850;12.928;2023-02-01T07:20:41;97596.56;;;3.59
20730;BMP280;10526;50.850;12.928;2023-02-01T07:25:03;97592.09;;;3.63
20730;BMP280;10526;50.850;12.928;2023-02-01T07:29:27;97586.16;;;3.66
20730;BMP280;10526;50.850;12.928;2023-02-01T07:33:49;97588.47;;;3.71
20730;BMP280;10526;50.850;12.928;2023-02-01T07:38:17;97591.13;;;3.71
20730;BMP280;10526;50.850;12.928;2023-02-01T07:42:39;97587.06;;;3.78
20730;BMP280;10526;50.850;12.928;2023-02-01T07:47:02;97572.53;;;3.87
20730;BMP280;10526;50.850;12.928;2023-02-01T07:51:24;97571.16;;;3.97
20730;BMP280;10526;50.850;12.928;2023-02-01T07:55:46;97565.56;;;4.02
20730;BMP280;10526;50.850;12.928;2023-02-01T08:00:10;97561.88;;;4.07
20730;BMP280;10526;50.850;12.928;2023-02-01T08:04:51;97560.41;;;4.09
20730;BMP280;10526;50.850;12.928;2023-02-01T08:09:13;97555.88;;;4.10
20730;BMP280;10526;50.850;12.928;2023-02-01T08:13:35;97559.69;;;4.12
20730;BMP280;10526;50.850;12.928;2023-02-01T08:17:57;97552.22;;;4.18
20730;BMP280;10526;50.850;12.928;2023-02-01T08:22:21;97543.22;;;4.22
20730;BMP280;10526;50.850;12.928;2023-02-01T08:26:43;97552.34;;;4.29
20730;BMP280;10526;50.850;12.928;2023-02-01T08:31:08;97554.34;;;4.35
20730;BMP280;10526;50.850;12.928;2023-02-01T08:35:31;97541.03;;;4.58
20730;BMP280;10526;50.850;12.928;2023-02-01T08:40:06;97552.84;;;4.71
20730;BMP280;10526;50.850;12.928;2023-02-01T08:44:28;97552.97;;;4.86
20730;BMP280;10526;50.850;12.928;2023-02-01T08:48:51;97559.84;;;4.94
20730;BMP280;10526;50.850;12.928;2023-02-01T08:53:14;97528.81;;;4.84
20730;BMP280;10526;50.850;12.928;2023-02-01T08:57:36;97554.53;;;4.53
20730;BMP280;10526;50.850;12.928;2023-02-01T09:01:58;97553.53;;;4.31
20730;BMP280;10526;50.850;12.928;2023-02-01T09:06:20;97560.69;;;4.31
20730;BMP280;10526;50.850;12.928;2023-02-01T09:10:42;97558.75;;;4.28
20730;BMP280;10526;50.850;12.928;2023-02-01T09:15:05;97551.22;;;3.96
20730;BMP280;10526;50.850;12.928;2023-02-01T09:19:28;97554.56;;;3.66
20730;BMP280;10526;50.850;12.928;2023-02-01T09:23:51;97567.84;;;3.50
20730;BMP280;10526;50.850;12.928;2023-02-01T09:28:16;97574.06;;;3.39
20730;BMP280;10526;50.850;12.928;2023-02-01T09:32:38;97564.91;;;3.33
20730;BMP280;10526;50.850;12.928;2023-02-01T09:37:00;97563.75;;;3.30
20730;BMP280;10526;50.850;12.928;2023-02-01T09:46:28;97559.97;;;3.28
20730;BMP280;10526;50.850;12.928;2023-02-01T09:50:55;97562.28;;;3.33
20730;BMP280;10526;50.850;12.928;2023-02-01T09:55:39;97576.03;;;3.45
20730;BMP280;10526;50.850;12.928;2023-02-01T10:00:23;97577.00;;;3.60
20730;BMP280;10526;50.850;12.928;2023-02-01T10:04:48;97578.72;;;3.75
20730;BMP280;10526;50.850;12.928;2023-02-01T10:14:18;97608.94;;;4.08
20730;BMP280;10526;50.850;12.928;2023-02-01T10:19:28;97610.84;;;4.38
20730;BMP280;10526;50.850;12.928;2023-02-01T10:28:47;97614.44;;;4.56
20730;BMP280;10526;50.850;12.928;2023-02-01T10:33:21;97612.66;;;4.64
20730;BMP280;10526;50.850;12.928;2023-02-01T10:37:45;97619.53;;;4.72
20730;BMP280;10526;50.850;12.928;2023-02-01T10:42:08;97634.75;;;4.86
20730;BMP280;10526;50.850;12.928;2023-02-01T10:46:34;97620.59;;;5.01
20730;BMP280;10526;50.850;12.928;2023-02-01T10:51:24;97629.88;;;5.25
20730;BMP280;10526;50.850;12.928;2023-02-01T10:55:49;97608.47;;;5.37
20730;BMP280;10526;50.850;12.928;2023-02-01T11:00:21;97616.84;;;5.46
20730;BMP280;10526;50.850;12.928;2023-02-01T11:04:44;97634.34;;;5.65
20730;BMP280;10526;50.850;12.928;2023-02-01T11:13:36;97626.16;;;5.81
20730;BMP280;10526;50.850;12.928;2023-02-01T11:18:19;97623.22;;;5.93
20730;BMP280;10526;50.850;12.928;2023-02-01T11:22:54;97609.78;;;6.23
20730;BMP280;10526;50.850;12.928;2023-02-01T11:27:21;97621.25;;;6.45
20730;BMP280;10526;50.850;12.928;2023-02-01T11:31:48;97620.91;;;6.57
20730;BMP280;10526;50.850;12.928;2023-02-01T11:36:19;97614.19;;;6.92
20730;BMP280;10526;50.850;12.928;2023-02-01T11:40:42;97620.94;;;6.79
20730;BMP280;10526;50.850;12.928;2023-02-01T11:45:25;97615.22;;;6.59
20730;BMP280;10526;50.850;12.928;2023-02-01T11:49:53;97609.91;;;6.52
20730;BMP280;10526;50.850;12.928;2023-02-01T12:43:45;97572.06;;;6.37
20730;BMP280;10526;50.850;12.928;2023-02-01T12:48:42;97539.56;;;6.37
20730;BMP280;10526;50.850;12.928;2023-02-01T12:53:46;97553.94;;;6.32
20730;BMP280;10526;50.850;12.928;2023-02-01T12:58:22;97553.16;;;6.35
20730;BMP280;10526;50.850;12.928;2023-02-01T13:02:56;97559.97;;;6.32
20730;BMP280;10526;50.850;12.928;2023-02-01T13:07:31;97545.59;;;6.26
20730;BMP280;10526;50.850;12.928;2023-02-01T13:12:04;97536.19;;;6.32
20730;BMP280;10526;50.850;12.928;2023-02-01T13:16:44;97547.91;;;6.39
20730;BMP280;10526;50.850;12.928;2023-02-01T13:21:21;97538.81;;;6.32
20730;BMP280;10526;50.850;12.928;2023-02-01T13:25:51;97547.50;;;6.37
20730;BMP280;10526;50.850;12.928;2023-02-01T13:30:26;97534.69;;;6.39
20730;BMP280;10526;50.850;12.928;2023-02-01T13:45:05;97520.56;;;6.02
20730;BMP280;10526;50.850;12.928;2023-02-01T13:49:39;97517.53;;;5.97
20730;BMP280;10526;50.850;12.928;2023-02-01T13:54:01;97520.53;;;5.92
20730;BMP280;10526;50.850;12.928;2023-02-01T13:58:40;97510.69;;;5.85
20730;BMP280;10526;50.850;12.928;2023-02-01T14:03:08;97525.38;;;5.82
20730;BMP280;10526;50.850;12.928;2023-02-01T14:07:31;97518.56;;;5.74
20730;BMP280;10526;50.850;12.928;2023-02-01T14:11:55;97506.06;;;5.68
20730;BMP280;10526;50.850;12.928;2023-02-01T14:16:20;97497.78;;;5.69
20730;BMP280;10526;50.850;12.928;2023-02-01T14:20:45;97487.19;;;5.66
20730;BMP280;10526;50.850;12.928;2023-02-01T14:25:17;97494.72;;;5.64
20730;BMP280;10526;50.850;12.928;2023-02-01T14:29:56;97484.91;;;5.64
20730;BMP280;10526;50.850;12.928;2023-02-01T14:39:30;97463.03;;;5.60
20730;BMP280;10526;50.850;12.928;2023-02-01T14:57:43;97462.56;;;5.44
20730;BMP280;10526;50.850;12.928;2023-02-01T15:02:21;97447.06;;;5.39
20730;BMP280;10526;50.850;12.928;2023-02-01T15:06:55;97442.13;;;5.37
20730;BMP280;10526;50.850;12.928;2023-02-01T15:11:20;97453.81;;;5.33
20730;BMP280;10526;50.850;12.928;2023-02-01T15:15:42;97446.59;;;5.29
20730;BMP280;10526;50.850;12.928;2023-02-01T15:20:21;97433.41;;;5.22
20730;BMP280;10526;50.850;12.928;2023-02-01T15:24:56;97428.84;;;5.19
20730;BMP280;10526;50.850;12.928;2023-02-01T15:29:20;97421.66;;;5.16
20730;BMP280;10526;50.850;12.928;2023-02-01T15:33:56;97408.44;;;5.13
20730;BMP280;10526;50.850;12.928;2023-02-01T15:38:32;97400.88;;;5.08
20730;BMP280;10526;50.850;12.928;2023-02-01T15:42:57;97414.06;;;5.04
20730;BMP280;10526;50.850;12.928;2023-02-01T15:47:28;97401.59;;;5.01
20730;BMP280;10526;50.850;12.928;2023-02-01T15:51:53;97398.53;;;4.92
20730;BMP280;10526;50.850;12.928;2023-02-01T15:56:21;97393.56;;;4.87
20730;BMP280;10526;50.850;12.928;2023-02-01T16:00:55;97406.03;;;4.90
20730;BMP280;10526;50.850;12.928;2023-02-01T16:05:42;97389.47;;;4.89
20730;BMP280;10526;50.850;12.928;2023-02-01T16:10:25;97385.69;;;4.90
20730;BMP280;10526;50.850;12.928;2023-02-01T16:14:47;97374.41;;;4.97
20730;BMP280;10526;50.850;12.928;2023-02-01T16:19:10;97356.00;;;5.04
20730;BMP280;10526;50.850;12.928;2023-02-01T16:23:32;97342.88;;;5.11
20730;BMP280;10526;50.850;12.928;2023-02-01T16:27:54;97357.19;;;5.17
20730;BMP280;10526;50.850;12.928;2023-02-01T16:32:20;97361.75;;;5.20
20730;BMP280;10526;50.850;12.928;2023-02-01T16:36:46;97370.03;;;5.19
20730;BMP280;10526;50.850;12.928;2023-02-01T16:41:15;97341.25;;;4.92
20730;BMP280;10526;50.850;12.928;2023-02-01T16:45:38;97355.13;;;4.86
20730;BMP280;10526;50.850;12.928;2023-02-01T16:50:02;97368.72;;;4.91
20730;BMP280;10526;50.850;12.928;2023-02-01T16:54:42;97374.72;;;4.85
20730;BMP280;10526;50.850;12.928;2023-02-01T16:59:04;97514.81;;;4.35
20730;BMP280;10526;50.850;12.928;2023-02-01T17:03:27;97555.22;;;2.33
20730;BMP280;10526;50.850;12.928;2023-02-01T17:07:50;97537.81;;;1.10
20730;BMP280;10526;50.850;12.928;2023-02-01T17:12:30;97520.13;;;0.63
20730;BMP280;10526;50.850;12.928;2023-02-01T17:16:52;97504.47;;;0.51
20730;BMP280;10526;50.850;12.928;2023-02-01T17:21:15;97504.25;;;0.44
20730;BMP280;10526;50.850;12.928;2023-02-01T17:25:37;97500.53;;;0.45
20730;BMP280;10526;50.850;12.928;2023-02-01T17:29:59;97495.66;;;0.43
20730;BMP280;10526;50.850;12.928;2023-02-01T17:34:24;97482.66;;;0.47
20730;BMP280;10526;50.850;12.928;2023-02-01T17:38:46;97457.41;;;0.55
20730;BMP280;10526;50.850;12.928;2023-02-01T17:43:26;97459.69;;;0.56
20730;BMP280;10526;50.850;12.928;2023-02-01T17:47:48;97472.47;;;0.58
20730;BMP280;10526;50.850;12.928;2023-02-01T17:52:16;97474.06;;;0.62
20730;BMP280;10526;50.850;12.928;2023-02-01T17:56:39;97478.97;;;0.64
20730;BMP280;10526;50.850;12.928;2023-02-01T18:01:01;97475.59;;;0.63
20730;BMP280;10526;50.850;12.928;2023-02-01T18:05:31;97489.88;;;0.66
20730;BMP280;10526;50.850;12.928;2023-02-01T18:09:56;97502.44;;;0.60
20730;BMP280;10526;50.850;12.928;2023-02-01T18:14:18;97493.41;;;0.58
20730;BMP280;10526;50.850;12.928;2023-02-01T18:18:40;97506.50;;;0.58
20730;BMP280;10526;50.850;12.928;2023-02-01T18:23:02;97485.56;;;0.58
20730;BMP280;10526;50.850;12.928;2023-02-01T18:27:25;97503.09;;;0.57
20730;BMP280;10526;50.850;12.928;2023-02-01T18:31:49;97506.59;;;0.61
20730;BMP280;10526;50.850;12.928;2023-02-01T18:36:12;97504.06;;;0.65
20730;BMP280;10526;50.850;12.928;2023-02-01T18:41:00;97510.16;;;0.69
20730;BMP280;10526;50.850;12.928;2023-02-01T18:45:39;97504.91;;;0.69
20730;BMP280;10526;50.850;12.928;2023-02-01T18:50:03;97508.75;;;0.71
20730;BMP280;10526;50.850;12.928;2023-02-01T18:54:25;97507.88;;;0.67
20730;BMP280;10526;50.850;12.928;2023-02-01T18:58:49;97519.22;;;0.71
20730;BMP280;10526;50.850;12.928;2023-02-01T19:03:13;97524.47;;;0.71
20730;BMP280;10526;50.850;12.928;2023-02-01T19:07:39;97530.66;;;0.79
20730;BMP280;10526;50.850;12.928;2023-02-01T19:12:01;97529.31;;;0.85
20730;BMP280;10526;50.850;12.928;2023-02-01T19:16:24;97529.84;;;0.91
20730;BMP280;10526;50.850;12.928;2023-02-01T19:20:47;97544.56;;;0.95
20730;BMP280;10526;50.850;12.928;2023-02-01T19:25:26;97536.78;;;0.99
20730;BMP280;10526;50.850;12.928;2023-02-01T19:29:50;97535.53;;;0.93
20730;BMP280;10526;50.850;12.928;2023-02-01T19:34:14;97544.03;;;0.90
20730;BMP280;10526;50.850;12.928;2023-02-01T19:38:36;97548.84;;;0.88
20730;BMP280;10526;50.850;12.928;2023-02-01T19:42:58;97553.31;;;0.87
20730;BMP280;10526;50.850;12.928;2023-02-01T19:47:20;97553.88;;;0.93
20730;BMP280;10526;50.850;12.928;2023-02-01T19:51:42;97551.00;;;0.98
20730;BMP280;10526;50.850;12.928;2023-02-01T19:56:06;97554.47;;;1.02
20730;BMP280;10526;50.850;12.928;2023-02-01T20:00:28;97554.56;;;1.06
20730;BMP280;10526;50.850;12.928;2023-02-01T20:04:50;97555.41;;;1.10
20730;BMP280;10526;50.850;12.928;2023-02-01T20:09:12;97558.22;;;1.17
20730;BMP280;10526;50.850;12.928;2023-02-01T20:13:35;97557.22;;;1.21
20730;BMP280;10526;50.850;12.928;2023-02-01T20:17:59;97571.28;;;1.29
20730;BMP280;10526;50.850;12.928;2023-02-01T20:22:21;97578.47;;;1.32
20730;BMP280;10526;50.850;12.928;2023-02-01T20:26:44;97578.13;;;1.34
20730;BMP280;10526;50.850;12.928;2023-02-01T20:31:07;97582.25;;;1.35
20730;BMP280;10526;50.850;12.928;2023-02-01T20:35:31;97572.19;;;1.37
20730;BMP280;10526;50.850;12.928;2023-02-01T20:39:54;97579.38;;;1.40
20730;BMP280;10526;50.850;12.928;2023-02-01T20:44:16;97588.78;;;1.41
20730;BMP280;10526;50.850;12.928;2023-02-01T20:48:46;97585.91;;;1.46
20730;BMP280;10526;50.850;12.928;2023-02-01T20:53:08;97582.69;;;1.53
20730;BMP280;10526;50.850;12.928;2023-02-01T20:57:43;97584.22;;;1.54
20730;BMP280;10526;50.850;12.928;2023-02-01T21:02:05;97580.69;;;1.62
20730;BMP280;10526;50.850;12.928;2023-02-01T21:06:27;97588.97;;;1.64
20730;BMP280;10526;50.850;12.928;2023-02-01T21:11:01;97583.88;;;1.71
20730;BMP280;10526;50.850;12.928;2023-02-01T21:15:23;97571.97;;;1.73
20730;BMP280;10526;50.850;12.928;2023-02-01T21:19:48;97575.75;;;1.76
20730;BMP280;10526;50.850;12.928;2023-02-01T21:24:12;97573.66;;;1.82
20730;BMP280;10526;50.850;12.928;2023-02-01T21:28:35;97570.75;;;1.87
20730;BMP280;10526;50.850;12.928;2023-02-01T21:32:58;97574.56;;;1.89
20730;BMP280;10526;50.850;12.928;2023-02-01T21:37:21;97580.22;;;1.91
20730;BMP280;10526;50.850;12.928;2023-02-01T21:41:46;97583.34;;;1.97
20730;BMP280;10526;50.850;12.928;2023-02-01T21:46:27;97580.72;;;1.97
20730;BMP280;10526;50.850;12.928;2023-02-01T21:50:49;97587.94;;;2.00
20730;BMP280;10526;50.850;12.928;2023-02-01T21:55:13;97581.13;;;1.99
20730;BMP280;10526;50.850;12.928;2023-02-01T21:59:35;97589.78;;;1.99
20730;BMP280;10526;50.850;12.928;2023-02-01T22:03:57;97587.50;;;1.98
20730;BMP280;10526;50.850;12.928;2023-02-01T22:08:19;97590.88;;;1.98
20730;BMP280;10526;50.850;12.928;2023-02-01T22:12:41;97585.31;;;2.00
20730;BMP280;10526;50.850;12.928;2023-02-01T22:17:04;97581.97;;;2.03
20730;BMP280;10526;50.850;12.928;2023-02-01T22:21:26;97595.53;;;2.05
20730;BMP280;10526;50.850;12.928;2023-02-01T22:25:48;97582.06;;;2.07
20730;BMP280;10526;50.850;12.928;2023-02-01T22:30:12;97599.09;;;2.13
20730;BMP280;10526;50.850;12.928;2023-02-01T22:34:34;97591.22;;;2.13
20730;BMP280;10526;50.850;12.928;2023-02-01T22:38:56;97602.91;;;2.15
20730;BMP280;10526;50.850;12.928;2023-02-01T22:43:22;97602.91;;;2.15
20730;BMP280;10526;50.850;12.928;2023-02-01T22:47:44;97605.09;;;2.13
20730;BMP280;10526;50.850;12.928;2023-02-01T22:52:07;97597.22;;;2.13
20730;BMP280;10526;50.850;12.928;2023-02-01T22:56:34;97610.34;;;2.13
20730;BMP280;10526;50.850;12.928;2023-02-01T23:01:04;97612.81;;;2.06
20730;BMP280;10526;50.850;12.928;2023-02-01T23:05:28;97608.31;;;1.91
20730;BMP280;10526;50.850;12.928;2023-02-01T23:09:51;97603.69;;;1.84
20730;BMP280;10526;50.850;12.928;2023-02-01T23:14:14;97608.72;;;1.73
20730;BMP280;10526;50.850;12.928;2023-02-01T23:18:37;97603.50;;;1.61
20730;BMP280;10526;50.850;12.928;2023-02-01T23:22:59;97598.78;;;1.51
20730;BMP280;10526;50.850;12.928;2023-02-01T23:27:21;97597.50;;;1.45
20730;BMP280;10526;50.850;12.928;2023-02-01T23:31:43;97603.41;;;1.42
20730;BMP280;10526;50.850;12.928;2023-02-01T23:36:11;97606.13;;;1.45
20730;BMP280;10526;50.850;12.928;2023-02-01T23:40:33;97599.72;;;1.43
20730;BMP280;10526;50.850;12.928;2023-02-01T23:44:55;97605.03;;;1.46
20730;BMP280;10526;50.850;12.928;2023-02-01T23:49:17;97613.34;;;1.64
20730;BMP280;10526;50.850;12.928;2023-02-01T23:53:40;97612.00;;;1.86
20730;BMP280;10526;50.850;12.928;2023-02-01T23:58:02;97601.06;;;2.00
